createdAt,value
2023-03-30T00:02:09.027Z,100027.00
2023-03-30T00:04:37.709Z,100011.00
2023-03-30T00:07:06.561Z,100051.00
2023-03-30T00:09:42.422Z,100043.00
2023-03-30T00:12:10.997Z,100032.00
2023-03-30T00:14:42.577Z,100014.00
2023-03-30T00:17:12.750Z,100057.00
2023-03-30T00:19:42.422Z,100027.00
2023-03-30T00:22:11.576Z,100034.00
2023-03-30T00:24:39.567Z,99996.00
2023-03-30T00:27:07.624Z,100005.00
2023-03-30T00:29:37.048Z,99992.00
2023-03-30T00:32:09.345Z,99980.00
2023-03-30T00:34:37.414Z,99986.00
2023-03-30T00:37:05.593Z,100007.00
2023-03-30T00:39:33.854Z,99991.00
2023-03-30T00:42:01.974Z,99995.00
2023-03-30T00:45:17.462Z,99988.00
2023-03-30T00:47:51.510Z,99968.00
2023-03-30T00:50:22.713Z,99980.00
2023-03-30T00:52:53.545Z,99969.00
2023-03-30T00:55:23.892Z,99962.00
2023-03-30T00:57:52.679Z,99973.00
2023-03-30T01:00:22.675Z,99954.00
2023-03-30T01:02:58.894Z,99952.00
2023-03-30T01:05:28.443Z,99893.00
2023-03-30T01:08:01.300Z,99964.00
2023-03-30T01:10:29.368Z,99952.00
2023-03-30T01:12:57.441Z,99944.00
2023-03-30T01:15:35.894Z,99951.00
2023-03-30T01:18:19.788Z,99949.00
2023-03-30T01:21:13.903Z,99924.00
2023-03-30T01:24:12.180Z,99947.00
2023-03-30T01:26:47.520Z,99951.00
2023-03-30T01:29:39.290Z,99935.00
2023-03-30T01:32:46.347Z,99926.00
2023-03-30T01:35:53.886Z,99906.00
2023-03-30T01:38:58.036Z,99917.00
2023-03-30T01:41:34.055Z,99898.00
2023-03-30T01:44:05.820Z,99902.00
2023-03-30T01:46:40.281Z,99893.00
2023-03-30T01:49:15.449Z,99889.00
2023-03-30T01:51:48.515Z,99888.00
2023-03-30T01:54:20.444Z,99875.00
2023-03-30T01:56:53.762Z,99834.00
2023-03-30T01:59:27.218Z,99867.00
2023-03-30T02:02:00.575Z,99856.00
2023-03-30T02:04:30.781Z,99869.00
2023-03-30T02:07:06.436Z,99867.00
2023-03-30T02:09:42.037Z,99826.00
2023-03-30T02:12:15.865Z,99862.00
2023-03-30T02:14:49.455Z,99817.00
2023-03-30T02:17:21.285Z,99847.00
2023-03-30T02:19:49.795Z,99831.00
2023-03-30T02:22:19.806Z,99820.00
2023-03-30T02:24:52.456Z,99841.00
2023-03-30T02:27:20.866Z,99839.00
2023-03-30T02:29:49.052Z,99822.00
2023-03-30T02:32:20.974Z,99818.00
2023-03-30T02:35:09.115Z,99826.00
2023-03-30T02:38:09.911Z,99817.00
2023-03-30T02:40:49.083Z,99827.00
2023-03-30T02:43:27.668Z,99797.00
2023-03-30T02:46:08.966Z,99768.00
2023-03-30T02:48:43.256Z,99713.00
2023-03-30T02:51:26.641Z,99776.00
2023-03-30T02:54:01.328Z,99783.00
2023-03-30T02:56:39.778Z,99766.00
2023-03-30T02:59:13.131Z,99776.00
2023-03-30T03:01:48.029Z,99791.00
2023-03-30T03:04:16.892Z,99733.00
2023-03-30T03:06:45.037Z,99769.00
2023-03-30T03:09:13.119Z,99747.00
2023-03-30T03:11:42.664Z,99780.00
2023-03-30T03:14:12.240Z,99804.00
2023-03-30T03:16:41.022Z,99762.00
2023-03-30T03:19:10.746Z,99762.00
2023-03-30T03:21:41.155Z,99785.00
2023-03-30T03:24:09.776Z,99735.00
2023-03-30T03:26:38.187Z,99788.00
2023-03-30T03:29:10.060Z,99782.00
2023-03-30T03:31:38.320Z,99781.00
2023-03-30T03:34:06.974Z,99756.00
2023-03-30T03:36:35.133Z,99739.00
2023-03-30T03:39:03.108Z,99725.00
2023-03-30T03:41:31.413Z,99746.00
2023-03-30T03:44:01.954Z,99758.00
2023-03-30T03:46:31.960Z,99688.00
2023-03-30T03:48:59.942Z,99747.00
2023-03-30T03:51:29.344Z,99736.00
2023-03-30T03:53:57.553Z,99708.00
2023-03-30T03:56:27.028Z,99742.00
2023-03-30T03:58:57.436Z,99719.00
2023-03-30T04:01:25.605Z,99696.00
2023-03-30T04:03:54.800Z,99730.00
2023-03-30T04:06:25.397Z,99724.00
2023-03-30T04:08:53.374Z,99727.00
2023-03-30T04:11:21.445Z,99731.00
2023-03-30T04:13:49.911Z,99734.00
2023-03-30T04:16:19.420Z,99718.00
2023-03-30T04:18:49.094Z,99673.00
2023-03-30T04:21:21.430Z,99704.00
2023-03-30T04:23:50.394Z,99667.00
2023-03-30T04:26:18.979Z,99675.00
2023-03-30T04:28:47.180Z,99677.00
2023-03-30T04:31:15.139Z,99688.00
2023-03-30T04:33:52.071Z,99683.00
2023-03-30T04:36:22.337Z,99683.00
2023-03-30T04:38:58.855Z,99678.00
2023-03-30T04:41:33.298Z,99670.00
2023-03-30T04:44:03.253Z,99672.00
2023-03-30T04:46:32.643Z,99707.00
2023-03-30T04:49:01.003Z,99704.00
2023-03-30T04:51:30.904Z,99678.00
2023-03-30T04:53:59.126Z,99695.00
2023-03-30T04:56:27.998Z,99694.00
2023-03-30T04:59:02.252Z,99690.00
2023-03-30T05:01:30.126Z,99691.00
2023-03-30T05:04:01.962Z,99695.00
2023-03-30T05:06:31.823Z,99674.00
2023-03-30T05:09:04.436Z,99669.00
2023-03-30T05:11:34.314Z,99686.00
2023-03-30T05:14:02.785Z,99686.00
2023-03-30T05:16:32.571Z,99647.00
2023-03-30T05:19:06.362Z,99652.00
2023-03-30T05:21:37.850Z,99687.00
2023-03-30T05:24:11.458Z,99675.00
2023-03-30T05:26:46.441Z,99689.00
2023-03-30T05:29:18.432Z,99639.00
2023-03-30T05:31:57.784Z,99690.00
2023-03-30T05:34:30.079Z,99637.00
2023-03-30T05:37:03.764Z,99643.00
2023-03-30T05:39:37.966Z,99672.00
2023-03-30T05:42:15.986Z,99669.00
2023-03-30T05:44:47.424Z,99663.00
2023-03-30T05:47:26.827Z,99673.00
2023-03-30T05:49:58.001Z,99646.00
2023-03-30T05:52:31.795Z,99669.00
2023-03-30T05:55:08.089Z,99657.00
2023-03-30T05:57:42.771Z,99678.00
2023-03-30T06:00:39.344Z,99659.00
2023-03-30T06:03:10.673Z,99690.00
2023-03-30T06:05:44.572Z,99694.00
2023-03-30T06:08:27.813Z,99637.00
2023-03-30T06:11:00.362Z,99667.00
2023-03-30T06:13:31.536Z,99676.00
2023-03-30T06:16:03.840Z,99673.00
2023-03-30T06:18:37.996Z,99675.00
2023-03-30T06:21:47.468Z,99642.00
2023-03-30T06:24:27.761Z,99640.00
2023-03-30T06:26:56.007Z,99628.00
2023-03-30T06:29:24.094Z,99647.00
2023-03-30T06:31:52.430Z,99653.00
2023-03-30T06:34:25.350Z,99633.00
2023-03-30T06:36:59.478Z,99640.00
2023-03-30T06:39:32.559Z,99639.00
2023-03-30T06:42:12.126Z,99602.00
2023-03-30T06:44:50.462Z,99633.00
2023-03-30T06:47:33.993Z,99602.00
2023-03-30T06:50:06.033Z,99609.00
2023-03-30T06:52:36.428Z,99601.00
2023-03-30T06:55:18.067Z,99632.00
2023-03-30T06:58:11.364Z,99627.00
2023-03-30T07:00:42.892Z,99604.00
2023-03-30T07:03:30.109Z,99586.00
2023-03-30T07:06:13.182Z,99623.00
2023-03-30T07:09:16.685Z,99597.00
2023-03-30T07:11:53.888Z,99631.00
2023-03-30T07:14:48.414Z,99638.00
2023-03-30T07:17:35.759Z,99630.00
2023-03-30T07:20:15.705Z,99653.00
2023-03-30T07:23:01.366Z,99622.00
2023-03-30T07:25:43.083Z,99622.00
2023-03-30T07:28:43.281Z,99654.00
2023-03-30T07:31:22.555Z,99629.00
2023-03-30T07:34:20.098Z,99627.00
2023-03-30T07:37:21.602Z,99610.00
2023-03-30T07:39:57.576Z,99673.00
2023-03-30T07:42:42.584Z,99649.00
2023-03-30T07:45:27.791Z,99648.00
2023-03-30T07:51:09.118Z,99623.00
2023-03-30T07:53:50.237Z,99670.00
2023-03-30T07:56:43.175Z,99663.00
2023-03-30T07:59:28.747Z,99653.00
2023-03-30T08:02:14.725Z,99660.00
2023-03-30T08:04:48.871Z,99653.00
2023-03-30T08:07:18.220Z,99638.00
2023-03-30T08:10:11.344Z,99667.00
2023-03-30T08:12:53.553Z,99654.00
2023-03-30T08:15:36.643Z,99660.00
2023-03-30T08:18:21.573Z,99671.00
2023-03-30T08:20:57.546Z,99667.00
2023-03-30T08:23:33.659Z,99676.00
2023-03-30T08:26:06.708Z,99662.00
2023-03-30T08:28:45.367Z,99671.00
2023-03-30T08:31:38.716Z,99684.00
2023-03-30T08:34:21.152Z,99655.00
2023-03-30T08:36:49.994Z,99696.00
2023-03-30T08:39:26.953Z,99652.00
2023-03-30T08:42:31.220Z,99647.00
2023-03-30T08:45:11.268Z,99654.00
2023-03-30T08:47:51.003Z,99638.00
2023-03-30T08:50:33.309Z,99654.00
2023-03-30T08:53:09.222Z,99671.00
2023-03-30T08:55:51.096Z,99660.00
2023-03-30T08:58:47.531Z,99636.00
2023-03-30T09:01:30.807Z,99615.00
2023-03-30T09:04:34.340Z,99644.00
2023-03-30T09:07:30.065Z,99642.00
2023-03-30T09:09:59.138Z,99649.00
2023-03-30T09:12:40.334Z,99595.00
2023-03-30T09:15:18.567Z,99624.00
2023-03-30T09:18:02.294Z,99609.00
2023-03-30T09:20:45.558Z,99652.00
2023-03-30T09:23:35.393Z,99645.00
2023-03-30T09:26:19.254Z,99647.00
2023-03-30T09:29:20.447Z,99629.00
2023-03-30T09:32:00.237Z,99637.00
2023-03-30T09:34:41.908Z,99626.00
2023-03-30T09:37:25.780Z,99629.00
2023-03-30T09:40:02.742Z,99629.00
2023-03-30T09:42:48.114Z,99629.00
2023-03-30T09:45:28.269Z,99636.00
2023-03-30T09:47:56.894Z,99618.00
2023-03-30T09:50:47.247Z,99646.00
2023-03-30T09:53:29.545Z,99646.00
2023-03-30T09:56:20.816Z,99616.00
2023-03-30T09:58:52.152Z,99654.00
2023-03-30T10:01:22.047Z,99693.00
2023-03-30T10:04:07.632Z,99688.00
2023-03-30T10:06:39.129Z,99689.00
2023-03-30T10:09:12.044Z,99683.00
2023-03-30T10:11:43.249Z,99666.00
2023-03-30T10:14:33.945Z,99685.00
2023-03-30T10:17:03.258Z,99688.00
2023-03-30T10:19:43.523Z,99673.00
2023-03-30T10:22:23.300Z,99647.00
2023-03-30T10:25:03.958Z,99668.00
2023-03-30T10:27:41.713Z,99657.00
2023-03-30T10:30:12.592Z,99677.00
2023-03-30T10:32:47.439Z,99655.00
2023-03-30T10:35:25.647Z,99676.00
2023-03-30T10:37:56.291Z,99657.00
2023-03-30T10:40:32.706Z,99643.00
2023-03-30T10:43:15.916Z,99650.00
2023-03-30T10:45:55.347Z,99679.00
2023-03-30T10:48:37.780Z,99677.00
2023-03-30T10:51:20.884Z,99646.00
2023-03-30T10:54:09.447Z,99709.00
2023-03-30T10:56:42.345Z,99727.00
2023-03-30T10:59:32.774Z,99752.00
2023-03-30T11:02:22.522Z,99739.00
2023-03-30T11:05:00.673Z,99727.00
2023-03-30T11:07:45.306Z,99683.00
2023-03-30T11:10:22.111Z,99718.00
2023-03-30T11:13:03.599Z,99717.00
2023-03-30T11:15:59.974Z,99712.00
2023-03-30T11:18:43.266Z,99694.00
2023-03-30T11:21:24.696Z,99691.00
2023-03-30T11:24:07.829Z,99719.00
2023-03-30T11:26:50.792Z,99718.00
2023-03-30T11:29:35.524Z,99699.00
2023-03-30T11:32:27.535Z,99676.00
2023-03-30T11:35:12.400Z,99709.00
2023-03-30T11:37:55.721Z,99657.00
2023-03-30T11:40:37.062Z,99691.00
2023-03-30T11:43:17.724Z,99687.00
2023-03-30T11:45:55.960Z,99690.00
2023-03-30T11:48:48.138Z,99680.00
2023-03-30T11:51:28.282Z,99678.00
2023-03-30T11:54:02.024Z,99669.00
2023-03-30T11:56:54.377Z,99660.00
2023-03-30T11:59:37.604Z,99630.00
2023-03-30T12:02:27.142Z,99683.00
2023-03-30T12:05:04.261Z,99651.00
2023-03-30T12:07:46.063Z,99686.00
2023-03-30T12:10:28.564Z,99666.00
2023-03-30T12:13:05.789Z,99675.00
2023-03-30T12:16:05.069Z,99669.00
2023-03-30T12:19:04.017Z,99664.00
2023-03-30T12:21:49.052Z,99659.00
2023-03-30T12:24:49.405Z,99681.00
2023-03-30T12:27:28.005Z,99657.00
2023-03-30T12:30:12.641Z,99629.00
2023-03-30T12:33:10.664Z,99623.00
2023-03-30T12:36:00.333Z,99662.00
2023-03-30T12:42:14.724Z,99678.00
2023-03-30T12:45:58.889Z,99629.00
2023-03-30T12:49:03.048Z,99674.00
2023-03-30T12:52:24.827Z,99658.00
2023-03-30T12:58:17.052Z,99677.00
2023-03-30T13:01:22.050Z,99662.00
2023-03-30T13:03:52.627Z,99662.00
2023-03-30T13:06:26.807Z,99666.00
2023-03-30T13:09:04.966Z,99670.00
2023-03-30T13:11:45.897Z,99674.00
2023-03-30T13:14:28.170Z,99682.00
2023-03-30T13:17:14.964Z,99680.00
2023-03-30T13:19:51.915Z,99684.00
2023-03-30T13:22:29.831Z,99700.00
2023-03-30T13:25:02.102Z,99709.00
2023-03-30T13:27:33.831Z,99712.00
2023-03-30T13:30:07.651Z,99704.00
2023-03-30T13:32:55.965Z,99692.00
2023-03-30T13:35:47.461Z,99698.00
2023-03-30T13:38:31.307Z,99703.00
2023-03-30T13:41:08.832Z,99708.00
2023-03-30T13:43:52.217Z,99690.00
2023-03-30T13:46:28.492Z,99692.00
2023-03-30T13:49:12.107Z,99694.00
2023-03-30T13:51:42.386Z,99699.00
2023-03-30T13:54:15.701Z,99680.00
2023-03-30T13:56:49.458Z,99688.00
2023-03-30T13:59:20.649Z,99697.00
2023-03-30T14:01:53.820Z,99710.00
2023-03-30T14:04:22.090Z,99701.00
2023-03-30T14:06:52.349Z,99694.00
2023-03-30T14:09:22.662Z,99696.00
2023-03-30T14:11:52.069Z,99699.00
2023-03-30T14:14:24.935Z,99692.00
2023-03-30T14:16:54.242Z,99699.00
2023-03-30T14:19:26.164Z,99707.00
2023-03-30T14:21:57.259Z,99706.00
2023-03-30T14:24:29.988Z,99692.00
2023-03-30T14:27:03.248Z,99685.00
2023-03-30T14:29:32.407Z,99699.00
2023-03-30T14:32:08.888Z,99696.00
2023-03-30T14:34:37.781Z,99699.00
2023-03-30T14:37:08.171Z,99703.00
2023-03-30T14:39:42.379Z,99692.00
2023-03-30T14:42:16.949Z,99710.00
2023-03-30T14:44:45.869Z,99696.00
2023-03-30T14:47:15.772Z,99704.00
2023-03-30T14:49:45.023Z,99689.00
2023-03-30T14:52:17.990Z,99704.00
2023-03-30T14:54:54.502Z,99694.00
2023-03-30T14:57:37.687Z,99706.00
2023-03-30T15:00:20.938Z,99697.00
2023-03-30T15:02:53.204Z,99703.00
2023-03-30T15:05:23.615Z,99705.00
2023-03-30T15:07:53.001Z,99711.00
2023-03-30T15:10:33.828Z,99697.00
2023-03-30T15:13:03.815Z,99705.00
2023-03-30T15:15:33.548Z,99706.00
2023-03-30T15:18:05.002Z,99701.00
2023-03-30T15:20:33.354Z,99714.00
2023-03-30T15:23:01.717Z,99706.00
2023-03-30T15:25:32.558Z,99708.00
2023-03-30T15:28:03.564Z,99707.00
2023-03-30T15:30:34.834Z,99717.00
2023-03-30T15:33:04.231Z,99714.00
2023-03-30T15:35:34.453Z,99722.00
2023-03-30T15:38:04.125Z,99734.00
2023-03-30T15:40:36.280Z,99742.00
2023-03-30T15:43:19.083Z,99743.00
2023-03-30T15:45:50.097Z,99749.00
2023-03-30T15:48:22.655Z,99751.00
2023-03-30T15:50:55.093Z,99764.00
2023-03-30T15:53:33.279Z,99762.00
2023-03-30T15:56:01.601Z,99773.00
2023-03-30T15:58:29.672Z,99790.00
2023-03-30T16:00:58.126Z,99769.00
2023-03-30T16:03:40.486Z,99756.00
2023-03-30T16:06:13.107Z,99760.00
2023-03-30T16:08:43.530Z,99752.00
2023-03-30T16:11:11.722Z,99752.00
2023-03-30T16:13:43.462Z,99744.00
2023-03-30T16:16:13.944Z,99749.00
2023-03-30T16:18:43.138Z,99760.00
2023-03-30T16:21:12.478Z,99755.00
2023-03-30T16:23:40.661Z,99761.00
2023-03-30T16:26:09.701Z,99755.00
2023-03-30T16:28:37.533Z,99764.00
2023-03-30T16:31:12.446Z,99758.00
2023-03-30T16:33:40.446Z,99757.00
2023-03-30T16:36:14.857Z,99752.00
2023-03-30T16:38:42.630Z,99757.00
2023-03-30T16:41:13.445Z,99760.00
2023-03-30T16:43:41.157Z,99752.00
2023-03-30T16:46:11.953Z,99756.00
2023-03-30T16:48:39.703Z,99757.00
2023-03-30T16:51:10.643Z,99756.00
2023-03-30T16:53:38.507Z,99762.00
2023-03-30T16:56:07.520Z,99763.00
2023-03-30T16:58:35.205Z,99769.00
2023-03-30T17:01:04.377Z,99774.00
2023-03-30T17:03:32.627Z,99782.00
2023-03-30T17:06:00.332Z,99784.00
2023-03-30T17:08:30.057Z,99788.00
2023-03-30T17:11:00.872Z,99788.00
2023-03-30T17:13:29.104Z,99798.00
2023-03-30T17:15:58.242Z,99803.00
2023-03-30T17:18:26.807Z,99805.00
2023-03-30T17:20:55.527Z,99807.00
2023-03-30T17:23:25.047Z,99803.00
2023-03-30T17:25:55.273Z,99802.00
2023-03-30T17:28:24.808Z,99818.00
2023-03-30T17:30:53.955Z,99805.00
2023-03-30T17:33:22.151Z,99812.00
2023-03-30T17:35:52.615Z,99821.00
2023-03-30T17:38:21.810Z,99817.00
2023-03-30T17:40:50.929Z,99823.00
2023-03-30T17:43:20.035Z,99805.00
2023-03-30T17:45:47.858Z,99808.00
2023-03-30T17:48:17.560Z,99812.00
2023-03-30T17:50:47.236Z,99809.00
2023-03-30T17:53:16.753Z,99808.00
2023-03-30T17:55:45.834Z,99811.00
2023-03-30T17:58:18.622Z,99818.00
2023-03-30T18:00:49.050Z,99811.00
2023-03-30T18:03:18.615Z,99806.00
2023-03-30T18:05:48.639Z,99807.00
2023-03-30T18:08:18.771Z,99809.00
2023-03-30T18:10:48.976Z,99803.00
2023-03-30T18:13:17.218Z,99809.00
2023-03-30T18:15:49.535Z,99804.00
2023-03-30T18:18:22.582Z,99813.00
2023-03-30T18:20:51.869Z,99820.00
2023-03-30T18:23:19.943Z,99810.00
2023-03-30T18:25:47.791Z,99818.00
2023-03-30T18:28:18.400Z,99813.00
2023-03-30T18:30:47.606Z,99825.00
2023-03-30T18:33:17.197Z,99827.00
2023-03-30T18:35:46.472Z,99827.00
2023-03-30T18:38:16.184Z,99828.00
2023-03-30T18:40:45.655Z,99830.00
2023-03-30T18:43:15.005Z,99827.00
2023-03-30T18:45:45.408Z,99834.00
2023-03-30T18:48:16.685Z,99828.00
2023-03-30T18:50:46.084Z,99825.00
2023-03-30T18:53:16.256Z,99834.00
2023-03-30T18:55:45.956Z,99838.00
2023-03-30T18:58:15.599Z,99835.00
2023-03-30T19:00:43.727Z,99845.00
2023-03-30T19:03:13.194Z,99838.00
2023-03-30T19:05:43.323Z,99840.00
2023-03-30T19:08:12.734Z,99836.00
2023-03-30T19:10:42.475Z,99839.00
2023-03-30T19:13:13.612Z,99829.00
2023-03-30T19:15:41.840Z,99826.00
2023-03-30T19:18:09.954Z,99830.00
2023-03-30T19:20:40.993Z,99818.00
2023-03-30T19:23:12.377Z,99824.00
2023-03-30T19:25:40.838Z,99825.00
2023-03-30T19:28:10.004Z,99822.00
2023-03-30T19:30:39.540Z,99831.00
2023-03-30T19:33:11.822Z,99829.00
2023-03-30T19:35:40.640Z,99836.00
2023-03-30T19:38:10.147Z,99843.00
2023-03-30T19:40:38.330Z,99843.00
2023-03-30T19:43:06.966Z,99843.00
2023-03-30T19:45:34.914Z,99832.00
2023-03-30T19:48:02.680Z,99836.00
2023-03-30T19:50:30.732Z,99819.00
2023-03-30T19:52:58.954Z,99829.00
2023-03-30T19:55:28.638Z,99843.00
2023-03-30T19:57:56.482Z,99829.00
2023-03-30T20:00:24.609Z,99839.00
2023-03-30T20:02:54.286Z,99840.00
2023-03-30T20:05:23.986Z,99818.00
2023-03-30T20:07:52.305Z,99783.00
2023-03-30T20:10:22.239Z,99822.00
2023-03-30T20:12:52.638Z,99830.00
2023-03-30T20:15:22.538Z,99821.00
2023-03-30T20:17:56.152Z,99832.00
2023-03-30T20:20:25.384Z,99809.00
2023-03-30T20:22:56.353Z,99822.00
2023-03-30T20:25:24.971Z,99808.00
2023-03-30T20:27:54.650Z,99810.00
2023-03-30T20:30:22.906Z,99797.00
2023-03-30T20:33:04.349Z,99813.00
2023-03-30T20:35:36.263Z,99809.00
2023-03-30T20:38:04.640Z,99805.00
2023-03-30T20:40:32.794Z,99803.00
2023-03-30T20:43:03.269Z,99807.00
2023-03-30T20:45:32.014Z,99820.00
2023-03-30T20:48:06.049Z,99818.00
2023-03-30T20:50:34.582Z,99794.00
2023-03-30T20:53:02.638Z,99797.00
2023-03-30T20:55:30.306Z,99780.00
2023-03-30T20:57:57.972Z,99797.00
2023-03-30T21:00:27.422Z,99807.00
2023-03-30T21:02:55.332Z,99795.00
2023-03-30T21:05:23.160Z,99789.00
2023-03-30T21:07:54.055Z,99788.00
2023-03-30T21:10:22.204Z,99788.00
2023-03-30T21:12:49.915Z,99791.00
2023-03-30T21:15:19.001Z,99791.00
2023-03-30T21:17:48.124Z,99781.00
2023-03-30T21:20:15.985Z,99790.00
2023-03-30T21:22:43.738Z,99788.00
2023-03-30T21:25:12.696Z,99783.00
2023-03-30T21:27:40.569Z,99778.00
2023-03-30T21:30:10.678Z,99782.00
2023-03-30T21:32:38.434Z,99777.00
2023-03-30T21:35:08.076Z,99787.00
2023-03-30T21:37:35.944Z,99776.00
2023-03-30T21:40:03.758Z,99781.00
2023-03-30T21:42:34.746Z,99777.00
2023-03-30T21:45:02.503Z,99781.00
2023-03-30T21:47:30.391Z,99771.00
2023-03-30T21:49:58.159Z,99768.00
2023-03-30T21:52:27.308Z,99768.00
2023-03-30T21:54:55.012Z,99776.00
2023-03-30T21:57:22.963Z,99773.00
2023-03-30T21:59:50.720Z,99770.00
2023-03-30T22:02:18.579Z,99764.00
2023-03-30T22:04:46.320Z,99758.00
2023-03-30T22:07:14.044Z,99768.00
2023-03-30T22:09:43.113Z,99768.00
2023-03-30T22:12:10.829Z,99776.00
2023-03-30T22:14:38.505Z,99765.00
2023-03-30T22:17:07.769Z,99760.00
2023-03-30T22:19:35.576Z,99764.00
2023-03-30T22:22:04.704Z,99757.00
2023-03-30T22:24:32.413Z,99763.00
2023-03-30T22:27:01.546Z,99749.00
2023-03-30T22:29:31.178Z,99745.00
2023-03-30T22:31:58.942Z,99738.00
2023-03-30T22:34:27.109Z,99735.00
2023-03-30T22:36:54.881Z,99740.00
2023-03-30T22:39:23.485Z,99741.00
2023-03-30T22:41:51.237Z,99743.00
2023-03-30T22:44:21.354Z,99752.00
2023-03-30T22:46:49.071Z,99740.00
2023-03-30T22:49:17.633Z,99737.00
2023-03-30T22:51:52.053Z,99742.00
2023-03-30T22:54:22.475Z,99734.00
2023-03-30T22:56:50.326Z,99740.00
2023-03-30T22:59:18.075Z,99730.00
2023-03-30T23:01:47.232Z,99706.00
2023-03-30T23:04:14.957Z,99724.00
2023-03-30T23:06:43.431Z,99735.00
2023-03-30T23:09:13.566Z,99728.00
2023-03-30T23:11:45.699Z,99730.00
2023-03-30T23:14:13.968Z,99720.00
2023-03-30T23:16:42.257Z,99727.00
2023-03-30T23:19:12.661Z,99722.00
2023-03-30T23:21:41.027Z,99726.00
2023-03-30T23:24:11.730Z,99712.00
2023-03-30T23:26:39.501Z,99718.00
2023-03-30T23:29:07.283Z,99707.00
2023-03-30T23:31:35.554Z,99714.00
2023-03-30T23:34:03.420Z,99714.00
2023-03-30T23:36:32.559Z,99711.00
2023-03-30T23:39:00.290Z,99712.00
2023-03-30T23:41:29.060Z,99707.00
2023-03-30T23:43:56.778Z,99710.00
2023-03-30T23:46:25.456Z,99711.00
2023-03-30T23:48:53.219Z,99698.00
2023-03-30T23:51:20.996Z,99706.00
2023-03-30T23:53:54.365Z,99682.00
2023-03-30T23:56:27.669Z,99683.00
2023-03-30T23:58:55.399Z,99694.00
